Time;durP1;ratioP1;P1;durP2;ratioP2;P2;SDS_P1;SDS_P2;PMS_P1;PMS_P2;Temp;Humidity;BMP_temperature;BMP_pressure;BME280_temperature;BME280_humidity;BME280_pressure;Samples;Min_cycle;Max_cycle;Signal;HPM_P1;HPM_P2
2021/12/24 00:01:22;;;;;;;10.60;3.10;;;;;;;-9.64;100.00;99423.53;5029678;28;20071;-63
2021/12/24 00:04:10;;;;;;;11.95;3.10;;;;;;;-9.49;100.00;99422.69;5036683;28;20051;-64
2021/12/24 00:06:55;;;;;;;7.07;2.47;;;;;;;-9.40;100.00;99427.38;5027397;28;20063;-64
2021/12/24 00:09:41;;;;;;;6.38;2.55;;;;;;;-9.51;100.00;99419.13;5042516;28;20567;-60
2021/12/24 00:12:32;;;;;;;10.55;2.83;;;;;;;-9.52;100.00;99419.06;5038560;28;20110;-63
2021/12/24 00:36:44;;;;;;;6.85;2.53;;;;;;;-9.11;100.00;99412.66;5004862;28;20508;-59
2021/12/24 00:39:29;;;;;;;9.43;2.85;;;;;;;-8.95;100.00;99419.47;5004917;28;20064;-55
2021/12/24 00:42:14;;;;;;;4.75;2.08;;;;;;;-9.12;100.00;99415.16;4998595;28;20057;-60
2021/12/24 00:44:59;;;;;;;16.13;3.20;;;;;;;-9.07;100.00;99388.06;4993364;28;20072;-57
2021/12/24 00:47:45;;;;;;;5.82;2.47;;;;;;;-9.25;100.00;99408.53;4980371;28;20073;-56
2021/12/24 00:50:47;;;;;;;10.57;2.72;;;;;;;-9.40;100.00;99407.75;4993392;28;20074;-59
2021/12/24 00:56:18;;;;;;;9.38;2.95;;;;;;;-9.34;100.00;99397.78;5053767;28;20047;-57
2021/12/24 00:59:03;;;;;;;7.13;2.60;;;;;;;-9.26;100.00;99388.78;5053774;28;20536;-56
2021/12/24 01:01:47;;;;;;;7.65;2.92;;;;;;;-9.11;100.00;99397.25;5057822;28;20114;-60
2021/12/24 01:04:32;;;;;;;6.43;2.95;;;;;;;-9.12;100.00;99389.47;5039522;28;20056;-59
2021/12/24 01:07:16;;;;;;;10.52;3.55;;;;;;;-9.09;100.00;99394.78;5037265;28;20110;-59
2021/12/24 01:10:01;;;;;;;9.02;2.53;;;;;;;-9.10;100.00;99388.75;5052426;28;20098;-58
2021/12/24 01:12:46;;;;;;;4.68;2.28;;;;;;;-8.93;100.00;99387.03;5044797;28;20157;-56
2021/12/24 01:15:33;;;;;;;5.88;2.20;;;;;;;-8.94;100.00;99375.00;5048810;28;20052;-58
2021/12/24 01:18:38;;;;;;;4.07;2.15;;;;;;;-9.15;100.00;99386.78;5033781;28;20130;-54
2021/12/24 01:22:09;;;;;;;6.07;2.22;;;;;;;-9.47;100.00;99372.31;5035450;28;20103;-53
2021/12/24 01:24:45;;;;;;;7.97;2.20;;;;;;;-9.43;100.00;99373.38;5050366;28;20096;-58
2021/12/24 01:27:55;;;;;;;6.00;2.47;;;;;;;-9.46;100.00;99366.38;5033469;28;20417;-58
2021/12/24 01:42:56;;;;;;;5.60;2.47;;;;;;;-9.43;100.00;99356.28;5012570;28;20568;-58
2021/12/24 01:45:47;;;;;;;5.80;2.45;;;;;;;-9.15;100.00;99368.81;5030712;28;20056;-59
2021/12/24 01:48:32;;;;;;;4.97;2.30;;;;;;;-9.52;100.00;99360.94;5026775;28;20057;-57
2021/12/24 01:51:17;;;;;;;5.43;2.53;;;;;;;-9.40;100.00;99365.81;5054491;28;20060;-56
2021/12/24 01:54:11;;;;;;;5.22;2.42;;;;;;;-9.33;100.00;99357.63;5043360;28;20102;-56
2021/12/24 01:56:57;;;;;;;5.00;2.53;;;;;;;-9.38;100.00;99364.22;5045735;28;20056;-56
2021/12/24 01:59:42;;;;;;;5.55;2.70;;;;;;;-9.52;100.00;99363.50;5043805;28;20080;-62
2021/12/24 02:02:27;;;;;;;5.78;2.80;;;;;;;-9.50;100.00;99364.44;5038991;28;20457;-57
2021/12/24 02:05:14;;;;;;;4.68;2.38;;;;;;;-9.54;100.00;99357.41;5017545;28;20049;-62
2021/12/24 02:08:01;;;;;;;4.47;2.20;;;;;;;-9.54;100.00;99359.13;5033945;28;20210;-59
2021/12/24 02:10:49;;;;;;;6.78;2.65;;;;;;;-9.47;100.00;99358.63;5024201;28;20052;-61
2021/12/24 02:13:55;;;;;;;5.47;2.50;;;;;;;-9.62;100.00;99356.13;5014486;28;20060;-60
2021/12/24 02:28:47;;;;;;;5.78;2.22;;;;;;;-9.51;100.00;99336.19;5057105;28;20099;-60
2021/12/24 02:31:33;;;;;;;6.30;2.50;;;;;;;-9.59;100.00;99328.09;5029027;28;20056;-60
2021/12/24 02:34:18;;;;;;;5.35;2.72;;;;;;;-9.69;100.00;99324.97;5013268;28;20053;-59
2021/12/24 02:37:03;;;;;;;4.10;2.15;;;;;;;-9.90;100.00;99324.75;5012711;28;20045;-58
2021/12/24 02:39:48;;;;;;;3.25;1.60;;;;;;;-9.90;100.00;99323.88;5032785;28;20052;-54
2021/12/24 02:42:35;;;;;;;6.00;2.83;;;;;;;-9.81;100.00;99315.00;5049597;28;20051;-58
2021/12/24 02:45:21;;;;;;;5.97;2.88;;;;;;;-9.70;100.00;99316.38;5051660;28;20064;-60
2021/12/24 02:54:01;;;;;;;6.95;3.40;;;;;;;-9.81;100.00;99306.41;5035342;28;20103;-54
2021/12/24 02:56:53;;;;;;;5.35;2.45;;;;;;;-9.70;100.00;99306.13;5038443;28;20238;-56
2021/12/24 02:59:47;;;;;;;5.35;3.03;;;;;;;-9.70;100.00;99282.19;5058551;28;20051;-58
2021/12/24 03:02:34;;;;;;;8.75;3.40;;;;;;;-9.62;100.00;99291.16;5046496;28;20060;-55
2021/12/24 03:05:23;;;;;;;7.90;3.45;;;;;;;-9.63;100.00;99290.25;5042435;28;20216;-52
2021/12/24 03:08:08;;;;;;;9.38;3.20;;;;;;;-9.69;100.00;99289.06;5036950;28;20195;-56
2021/12/24 03:10:55;;;;;;;5.90;2.45;;;;;;;-9.73;100.00;99285.50;5050826;28;20539;-59
2021/12/24 03:13:42;;;;;;;7.65;3.22;;;;;;;-9.72;100.00;99289.81;5037537;28;20435;-56
2021/12/24 03:16:28;;;;;;;7.28;3.20;;;;;;;-9.68;100.00;99286.59;5057255;28;20528;-62
2021/12/24 03:19:13;;;;;;;;;;;;;;;-9.69;100.00;99278.81;5037064;28;20463;-61
2021/12/24 03:25:08;;;;;;;12.30;3.35;;;;;;;-9.93;100.00;99281.03;4989640;28;20365;-57
2021/12/24 03:27:53;;;;;;;7.20;2.70;;;;;;;-9.95;100.00;99291.97;4961845;28;20141;-57
2021/12/24 03:30:37;;;;;;;5.63;2.90;;;;;;;-10.03;100.00;99294.16;4988724;28;20545;-59
2021/12/24 03:33:22;;;;;;;;;;;;;;;-10.07;100.00;99294.84;4991358;28;20465;-60
2021/12/24 03:36:09;;;;;;;10.82;3.38;;;;;;;-10.09;100.00;99288.78;4991218;28;19925;-63
2021/12/24 03:38:57;;;;;;;12.98;3.67;;;;;;;-10.11;100.00;99274.97;4975424;28;20157;-65
2021/12/24 03:41:44;;;;;;;6.30;3.05;;;;;;;-10.06;100.00;99294.03;4990481;28;20137;-66
2021/12/24 03:44:38;;;;;;;12.60;4.22;;;;;;;-10.08;100.00;99287.97;5003648;28;20049;-64
2021/12/24 03:47:23;;;;;;;10.25;3.30;;;;;;;-9.98;100.00;99289.28;4973152;28;20630;-68
2021/12/24 03:50:16;;;;;;;6.38;3.17;;;;;;;-10.18;100.00;99288.28;4989691;28;20053;-66
2021/12/24 03:53:05;;;;;;;7.10;2.88;;;;;;;-10.07;100.00;99271.78;4964244;28;20057;-63
2021/12/24 03:55:52;;;;;;;9.23;2.30;;;;;;;-9.98;100.00;99276.47;4979751;28;20097;-56
2021/12/24 03:58:38;;;;;;;11.75;3.75;;;;;;;-9.93;100.00;99272.44;5004947;28;20121;-58
2021/12/24 04:01:52;;;;;;;9.07;2.90;;;;;;;-10.03;100.00;99260.84;4966881;28;20066;-65
2021/12/24 04:04:55;;;;;;;10.82;4.15;;;;;;;-9.90;100.00;99273.47;4972954;28;20057;-64
2021/12/24 04:08:00;;;;;;;5.47;2.47;;;;;;;-10.04;100.00;99277.03;4923185;29;20134;-65
2021/12/24 04:11:06;;;;;;;6.45;2.88;;;;;;;-10.07;100.00;99263.19;4931954;29;20096;-55
2021/12/24 04:13:53;;;;;;;11.02;3.30;;;;;;;-10.16;100.00;99265.28;4930233;29;20205;-57
2021/12/24 04:16:38;;;;;;;5.47;2.83;;;;;;;-10.05;100.00;99259.94;4931322;29;20500;-59
2021/12/24 04:24:49;;;;;;;11.65;3.80;;;;;;;-9.85;100.00;99255.78;4931622;29;20098;-58
2021/12/24 04:25:31;;;;;;;5.82;2.80;;;;;;;-9.95;100.00;99261.22;4931611;29;20572;-57
2021/12/24 04:28:15;;;;;;;13.10;4.25;;;;;;;-9.78;100.00;99263.84;4918835;29;20051;-59
2021/12/24 04:31:02;;;;;;;10.15;3.90;;;;;;;-9.76;100.00;99256.22;4930987;29;20142;-68
2021/12/24 04:33:50;;;;;;;7.93;3.17;;;;;;;-9.56;100.00;99248.72;4917497;29;20124;-55
2021/12/24 04:36:58;;;;;;;8.30;3.45;;;;;;;-9.53;100.00;99250.56;4916807;29;20087;-59
2021/12/24 04:51:01;;;;;;;6.93;2.70;;;;;;;-9.60;100.00;99246.81;4985798;28;20065;-62
2021/12/24 04:52:07;;;;;;;11.55;3.65;;;;;;;-9.27;100.00;99229.63;5042879;28;20063;-56
2021/12/24 05:03:52;;;;;;;7.07;3.47;;;;;;;-9.13;100.00;99202.91;5055119;28;20064;-58
2021/12/24 05:06:47;;;;;;;7.78;3.20;;;;;;;-9.08;100.00;99217.72;5031745;28;20126;-63
2021/12/24 05:09:33;;;;;;;;;;;;;;;-8.97;100.00;99225.94;5033109;28;20527;-63
2021/12/24 05:12:18;;;;;;;6.22;2.72;;;;;;;-9.12;100.00;99218.41;5058395;28;19927;-59
2021/12/24 05:15:07;;;;;;;6.80;2.75;;;;;;;-9.07;100.00;99214.34;5054728;28;20566;-62
2021/12/24 05:21:36;;;;;;;5.93;2.85;;;;;;;-9.22;100.00;99199.94;5000510;28;20045;-64
2021/12/24 05:24:26;;;;;;;7.95;3.22;;;;;;;-9.19;100.00;99206.06;4998429;28;20124;-63
2021/12/24 05:27:11;;;;;;;5.78;3.22;;;;;;;-9.28;100.00;99207.31;4972313;28;20077;-66
2021/12/24 05:29:56;;;;;;;;;;;;;;;-9.10;100.00;99218.47;5008855;28;20128;-62
2021/12/24 05:32:40;;;;;;;5.57;2.92;;;;;;;-9.14;100.00;99219.13;5011949;28;19929;-60
2021/12/24 05:35:25;;;;;;;5.72;2.55;;;;;;;-9.22;100.00;99213.63;4978656;28;20128;-58
2021/12/24 05:38:11;;;;;;;;;;;;;;;-9.23;100.00;99204.16;4988704;28;20132;-65
2021/12/24 05:40:58;;;;;;;6.00;2.13;;;;;;;-9.22;100.00;99213.63;5012763;28;20448;-68
2021/12/24 05:43:42;;;;;;;6.90;2.92;;;;;;;-9.32;100.00;99192.59;5003909;28;20084;-59
2021/12/24 05:46:29;;;;;;;5.38;2.90;;;;;;;-9.34;100.00;99191.66;4991125;28;20050;-62
2021/12/24 05:49:43;;;;;;;;;;;;;;;-9.25;100.00;99197.22;4989749;28;20045;-65
2021/12/24 05:52:48;;;;;;;5.07;2.17;;;;;;;-9.29;100.00;99196.19;4999765;28;20067;-56
2021/12/24 05:55:40;;;;;;;5.20;2.50;;;;;;;-9.25;100.00;99192.06;5032534;28;20052;-59
2021/12/24 05:58:34;;;;;;;;;;;;;;;-9.26;100.00;99196.31;5049499;28;20071;-59
2021/12/24 06:01:21;;;;;;;6.13;2.55;;;;;;;-9.29;100.00;99182.47;5061417;28;19928;-56
2021/12/24 06:04:07;;;;;;;6.72;3.05;;;;;;;-9.25;100.00;99192.97;5056806;28;20190;-57
2021/12/24 06:06:51;;;;;;;5.50;2.95;;;;;;;-9.31;100.00;99202.06;5052986;28;20047;-58
2021/12/24 06:09:36;;;;;;;7.25;2.70;;;;;;;-9.22;100.00;99210.19;5053519;28;20052;-57
2021/12/24 06:12:21;;;;;;;11.35;3.17;;;;;;;-9.21;100.00;99196.53;5034650;28;20045;-53
2021/12/24 06:15:08;;;;;;;5.28;2.60;;;;;;;-9.31;100.00;99189.25;5049466;28;20048;-56
2021/12/24 06:17:58;;;;;;;11.02;2.72;;;;;;;-9.23;100.00;99188.78;5050514;28;20119;-54
2021/12/24 06:20:43;;;;;;;12.05;3.40;;;;;;;-9.09;100.00;99194.56;5037329;28;20068;-61
2021/12/24 06:23:28;;;;;;;6.32;3.13;;;;;;;-9.14;100.00;99184.06;5034401;28;20060;-59
2021/12/24 06:26:13;;;;;;;6.28;2.75;;;;;;;-9.00;100.00;99200.09;5029905;28;20087;-60
2021/12/24 06:28:58;;;;;;;;;;;;;;;-9.06;100.00;99190.44;5040085;28;20098;-58
2021/12/24 06:31:43;;;;;;;7.03;2.95;;;;;;;-9.06;100.00;99202.41;5053027;28;20311;-59
2021/12/24 06:34:30;;;;;;;4.82;2.15;;;;;;;-9.07;100.00;99193.81;5056095;28;20049;-60
2021/12/24 06:37:16;;;;;;;6.35;2.80;;;;;;;-9.05;100.00;99202.47;5037144;28;20528;-63
2021/12/24 06:40:01;;;;;;;6.10;2.58;;;;;;;-9.04;100.00;99211.03;5032441;28;20079;-59
2021/12/24 06:42:47;;;;;;;4.35;2.25;;;;;;;-8.92;100.00;99211.59;5045633;28;20425;-60
2021/12/24 06:45:32;;;;;;;;;;;;;;;-8.80;100.00;99207.03;5047580;28;20408;-62
2021/12/24 06:48:18;;;;;;;5.70;2.75;;;;;;;-8.73;100.00;99207.41;5035943;28;19923;-58
2021/12/24 06:51:04;;;;;;;5.72;2.70;;;;;;;-8.79;100.00;99212.25;5018211;28;20078;-56
2021/12/24 06:53:48;;;;;;;5.78;2.88;;;;;;;-8.81;100.00;99208.75;5032370;28;20370;-56
2021/12/24 06:56:34;;;;;;;7.05;2.70;;;;;;;-8.67;100.00;99207.66;5045052;28;20052;-59
2021/12/24 06:59:18;;;;;;;5.28;2.25;;;;;;;-8.68;100.00;99198.22;5041631;28;20132;-56
2021/12/24 07:02:07;;;;;;;4.10;2.28;;;;;;;-8.56;100.00;99201.34;5024942;28;20119;-59
2021/12/24 07:04:51;;;;;;;6.75;2.88;;;;;;;-8.56;100.00;99205.56;5035785;28;20048;-57
2021/12/24 07:07:37;;;;;;;5.93;2.90;;;;;;;-8.57;100.00;99212.44;5037414;28;20051;-60
2021/12/24 07:10:22;;;;;;;6.15;2.38;;;;;;;-8.55;100.00;99199.66;5056818;28;20044;-59
2021/12/24 07:13:06;;;;;;;6.93;2.85;;;;;;;-8.43;100.00;99197.63;5004754;28;20433;-59
2021/12/24 07:15:51;;;;;;;4.85;2.38;;;;;;;-8.38;100.00;99207.31;5027829;28;20052;-60
2021/12/24 07:18:37;;;;;;;6.65;3.05;;;;;;;-8.52;100.00;99194.63;5054833;28;20536;-59
2021/12/24 07:21:22;;;;;;;5.78;2.70;;;;;;;-8.41;100.00;99206.25;5045884;28;20107;-57
2021/12/24 07:24:08;;;;;;;5.47;1.95;;;;;;;-8.49;100.00;99205.03;5063303;28;20571;-56
2021/12/24 07:26:53;;;;;;;4.10;1.38;;;;;;;-8.46;100.00;99203.50;5040110;28;20051;-56
2021/12/24 07:29:38;;;;;;;6.43;1.70;;;;;;;-8.58;100.00;99200.41;5050020;28;20086;-56
2021/12/24 07:32:22;;;;;;;5.07;2.45;;;;;;;-8.66;100.00;99191.47;5064435;28;20051;-59
2021/12/24 07:35:09;;;;;;;;;;;;;;;-8.55;100.00;99182.53;5032972;28;20116;-59
2021/12/24 07:37:53;;;;;;;6.82;2.40;;;;;;;-8.60;100.00;99193.41;5047118;28;19946;-57
2021/12/24 07:40:38;;;;;;;9.00;2.97;;;;;;;-8.60;100.00;99175.41;5050760;28;20098;-59
2021/12/24 07:43:23;;;;;;;6.22;2.50;;;;;;;-8.47;100.00;99195.72;5032105;28;20100;-59
2021/12/24 07:46:07;;;;;;;3.45;1.88;;;;;;;-8.54;100.00;99183.41;5051946;28;20125;-57
2021/12/24 07:49:01;;;;;;;4.65;1.77;;;;;;;-8.43;100.00;99190.78;5035916;28;20523;-58
2021/12/24 07:52:00;;;;;;;3.97;1.70;;;;;;;-8.44;100.00;99209.59;5021356;28;20072;-57
2021/12/24 07:54:48;;;;;;;4.53;1.88;;;;;;;-8.58;100.00;99168.69;5035430;28;20121;-59
2021/12/24 07:57:33;;;;;;;3.30;1.80;;;;;;;-8.47;100.00;99185.47;5064193;28;20555;-55
2021/12/24 08:00:22;;;;;;;14.25;3.20;;;;;;;-8.38;100.00;99191.88;5061149;28;20048;-65
2021/12/24 08:03:08;;;;;;;4.18;2.00;;;;;;;-8.36;100.00;99185.09;5033353;28;20049;-57
2021/12/24 08:05:53;;;;;;;4.97;2.38;;;;;;;-8.35;100.00;99191.13;5032647;28;20114;-59
2021/12/24 08:08:38;;;;;;;;;;;;;;;-8.29;100.00;99186.25;5049690;28;20060;-58
2021/12/24 08:11:23;;;;;;;3.95;2.03;;;;;;;-8.42;100.00;99189.09;5049081;28;19967;-57
2021/12/24 08:14:07;;;;;;;4.65;2.22;;;;;;;-8.32;100.00;99186.13;5034520;28;20099;-58
2021/12/24 08:16:52;;;;;;;7.47;3.17;;;;;;;-8.30;100.00;99187.97;5036215;28;20087;-59
2021/12/24 08:19:37;;;;;;;6.00;2.38;;;;;;;-8.20;100.00;99186.63;5026503;28;20527;-59
2021/12/24 08:22:22;;;;;;;7.05;2.95;;;;;;;-8.16;100.00;99180.81;5043573;28;20055;-62
2021/12/24 08:25:09;;;;;;;5.38;2.47;;;;;;;-8.16;100.00;99184.25;5041538;28;20137;-63
2021/12/24 08:27:54;;;;;;;5.78;2.90;;;;;;;-8.09;100.00;99173.41;5055988;28;20448;-59
2021/12/24 08:30:39;;;;;;;6.47;2.35;;;;;;;-8.15;100.00;99170.56;5037580;28;20048;-55
2021/12/24 08:33:23;;;;;;;5.65;2.60;;;;;;;-8.12;100.00;99186.13;5062690;28;20131;-58
2021/12/24 08:36:08;;;;;;;4.78;2.75;;;;;;;-8.04;100.00;99151.34;5064031;28;20052;-68
2021/12/24 08:38:55;;;;;;;6.00;2.50;;;;;;;-8.03;100.00;99165.94;5020880;28;20056;-61
2021/12/24 08:41:39;;;;;;;5.07;2.45;;;;;;;-8.11;100.00;99166.44;5035782;28;20397;-60
2021/12/24 08:44:27;;;;;;;4.78;2.28;;;;;;;-8.06;100.00;99154.66;5049622;28;20113;-62
2021/12/24 08:47:12;;;;;;;6.22;2.65;;;;;;;-7.99;100.00;99147.25;5033718;28;20111;-62
2021/12/24 08:49:57;;;;;;;8.27;3.55;;;;;;;-7.95;100.00;99138.84;5044188;28;20044;-61
2021/12/24 08:52:46;;;;;;;7.60;3.67;;;;;;;-7.93;100.00;99137.25;5034075;28;20099;-58
2021/12/24 08:55:33;;;;;;;9.60;3.47;;;;;;;-7.86;100.00;99144.41;5034728;28;20414;-62
2021/12/24 08:58:19;;;;;;;7.47;3.35;;;;;;;-7.93;100.00;99132.09;5051327;28;20544;-57
2021/12/24 09:01:06;;;;;;;8.88;3.22;;;;;;;-8.11;100.00;99131.31;5054278;28;20051;-58
2021/12/24 09:03:53;;;;;;;5.10;2.65;;;;;;;-8.00;100.00;99152.38;5052851;28;20056;-56
2021/12/24 09:06:41;;;;;;;5.68;3.35;;;;;;;-7.95;100.00;99140.56;5034350;28;20527;-57
2021/12/24 09:09:27;;;;;;;7.13;3.53;;;;;;;-7.81;100.00;99142.00;5056583;28;20111;-58
2021/12/24 09:12:12;;;;;;;7.28;3.10;;;;;;;-7.82;100.00;99142.81;5026045;28;20195;-56
2021/12/24 09:14:57;;;;;;;7.30;3.38;;;;;;;-7.93;100.00;99141.50;5060628;28;20052;-60
2021/12/24 09:17:46;;;;;;;8.38;3.92;;;;;;;-7.69;100.00;99132.19;5053637;28;20052;-57
2021/12/24 09:20:38;;;;;;;10.52;4.20;;;;;;;-7.71;100.00;99108.97;5039760;28;20051;-60
2021/12/24 09:23:26;;;;;;;9.23;3.72;;;;;;;-7.64;100.00;99136.72;5020180;28;20051;-59
2021/12/24 09:26:10;;;;;;;;;;;;;;;-7.74;100.00;99126.91;5037642;28;20131;-61
2021/12/24 09:28:56;;;;;;;5.63;2.13;;;;;;;-7.84;100.00;99135.03;5068599;28;20296;-58
2021/12/24 09:31:41;;;;;;;9.18;3.90;;;;;;;-7.77;100.00;99131.03;5050905;28;20051;-59
2021/12/24 09:34:28;;;;;;;6.72;3.42;;;;;;;-7.80;100.00;99107.75;5053402;28;20090;-62
2021/12/24 09:37:13;;;;;;;11.15;4.35;;;;;;;-7.74;100.00;99124.31;5047262;28;20489;-58
2021/12/24 09:39:58;;;;;;;;;;;;;;;-7.62;100.00;99137.69;5050431;28;20461;-64
2021/12/24 09:42:43;;;;;;;10.23;3.55;;;;;;;-7.74;100.00;99121.75;5061381;28;19927;-62
2021/12/24 09:45:28;;;;;;;6.82;3.38;;;;;;;-7.74;100.00;99132.03;5063667;28;20052;-63
2021/12/24 09:48:13;;;;;;;;;;;;;;;-7.59;100.00;99111.19;5038371;28;20075;-63
2021/12/24 09:50:57;;;;;;;9.00;4.40;;;;;;;-7.69;100.00;99116.75;5050978;28;19924;-62
2021/12/24 09:53:42;;;;;;;9.52;4.35;;;;;;;-7.87;100.00;99103.19;5036037;28;20520;-61
2021/12/24 09:56:26;;;;;;;10.23;4.32;;;;;;;-7.83;100.00;99117.94;5041973;28;20048;-58
2021/12/24 09:59:13;;;;;;;9.55;4.25;;;;;;;-7.69;100.00;99116.75;5051469;28;20091;-67
2021/12/24 10:02:00;;;;;;;11.52;4.80;;;;;;;-7.56;100.00;99108.75;5049486;28;20170;-67
2021/12/24 10:04:46;;;;;;;10.40;4.65;;;;;;;-7.66;100.00;99111.75;5033948;28;20107;-59
2021/12/24 10:07:37;;;;;;;13.07;4.80;;;;;;;-7.56;100.00;99101.88;5037992;28;20179;-62
2021/12/24 10:10:28;;;;;;;12.93;5.32;;;;;;;-7.72;100.00;99109.81;5066174;28;20531;-59
2021/12/24 10:13:43;;;;;;;8.88;4.50;;;;;;;-7.64;100.00;99103.28;5051001;28;20063;-60
2021/12/24 10:16:28;;;;;;;13.43;5.47;;;;;;;-7.55;100.00;99116.53;5041766;28;20198;-57
2021/12/24 10:19:14;;;;;;;11.20;5.20;;;;;;;-7.47;100.00;99089.41;5032734;28;20179;-60
2021/12/24 10:22:03;;;;;;;11.18;4.35;;;;;;;-7.49;100.00;99111.59;5030946;28;20130;-54
2021/12/24 10:25:10;;;;;;;12.85;5.13;;;;;;;-7.36;100.00;99100.09;5044813;28;20562;-58
2021/12/24 10:27:56;;;;;;;12.90;5.65;;;;;;;-7.26;100.00;99089.31;5052431;28;20056;-57
2021/12/24 10:30:41;;;;;;;12.35;5.18;;;;;;;-7.22;100.00;99098.91;5053546;28;20114;-57
2021/12/24 10:33:27;;;;;;;10.85;5.50;;;;;;;-7.14;100.00;99105.25;5035853;28;20083;-67
2021/12/24 10:36:12;;;;;;;9.70;5.00;;;;;;;-7.07;100.00;99087.53;5065774;28;20048;-53
2021/12/24 10:38:57;;;;;;;11.10;5.05;;;;;;;-6.98;100.00;99097.25;5036025;28;20099;-55
2021/12/24 10:41:49;;;;;;;13.10;5.28;;;;;;;-6.96;100.00;99088.78;5048820;28;20120;-56
2021/12/24 10:44:37;;;;;;;12.98;5.30;;;;;;;-7.05;100.00;99091.00;5052379;28;20168;-56
2021/12/24 10:47:25;;;;;;;12.10;4.50;;;;;;;-7.03;100.00;99063.63;5050020;28;20055;-57
2021/12/24 10:53:20;;;;;;;15.13;5.00;;;;;;;-7.24;100.00;99098.00;5063734;28;20079;-57
2021/12/24 10:56:06;;;;;;;11.95;5.05;;;;;;;-7.25;100.00;99075.63;5063794;28;20447;-55
2021/12/24 10:58:54;;;;;;;13.18;5.85;;;;;;;-7.21;100.00;99078.38;5064434;28;20413;-57
2021/12/24 11:01:40;;;;;;;10.90;5.43;;;;;;;-7.18;100.00;99075.03;5036636;28;20055;-58
2021/12/24 11:04:35;;;;;;;7.75;3.58;;;;;;;-7.27;100.00;99077.28;5025578;28;20120;-58
2021/12/24 11:07:44;;;;;;;10.93;4.65;;;;;;;-7.27;100.00;99078.16;5050897;28;20126;-56
2021/12/24 11:10:40;;;;;;;12.95;5.63;;;;;;;-7.33;100.00;99071.88;5050389;28;20047;-61
2021/12/24 11:13:39;;;;;;;14.25;5.28;;;;;;;-7.26;100.00;99067.03;5025817;28;20056;-55
2021/12/24 11:16:26;;;;;;;11.68;5.70;;;;;;;-7.30;100.00;99062.59;5067013;28;20092;-60
2021/12/24 11:19:11;;;;;;;11.15;4.50;;;;;;;-7.32;100.00;99073.66;5025692;28;20060;-58
2021/12/24 11:22:04;;;;;;;11.15;5.25;;;;;;;-7.28;100.00;99066.09;5021473;28;20137;-61
2021/12/24 11:24:49;;;;;;;7.60;3.95;;;;;;;-7.33;100.00;99062.47;5032623;28;20099;-63
2021/12/24 11:27:34;;;;;;;16.30;5.97;;;;;;;-7.37;100.00;99062.28;5035737;28;20059;-58
2021/12/24 11:30:21;;;;;;;12.73;5.70;;;;;;;-7.47;100.00;99055.94;5051910;28;20529;-60
2021/12/24 11:33:06;;;;;;;13.13;5.60;;;;;;;-7.42;100.00;99050.94;5051563;28;20547;-58
2021/12/24 11:35:54;;;;;;;13.48;5.32;;;;;;;-7.47;100.00;99055.94;5065293;28;20075;-62
2021/12/24 11:38:48;;;;;;;15.77;6.57;;;;;;;-7.26;100.00;99043.88;5017462;28;20528;-61
2021/12/24 11:41:36;;;;;;;16.05;6.88;;;;;;;-7.01;100.00;99045.66;5032482;28;20040;-57
2021/12/24 11:44:20;;;;;;;14.52;5.65;;;;;;;-6.78;100.00;99047.34;5045102;28;20056;-61
2021/12/24 11:47:05;;;;;;;;;;;;;;;-6.71;100.00;99046.75;5047421;28;20048;-59
2021/12/24 11:49:50;;;;;;;12.65;4.63;;;;;;;-6.89;100.00;99056.41;5038688;28;19966;-63
2021/12/24 11:52:35;;;;;;;14.02;6.20;;;;;;;-6.79;100.00;99045.59;5031855;28;20421;-59
2021/12/24 11:55:21;;;;;;;14.45;6.05;;;;;;;-6.76;100.00;99040.56;5024829;28;20071;-58
2021/12/24 11:58:20;;;;;;;12.35;5.88;;;;;;;-6.73;100.00;99040.69;5044336;28;20219;-62
2021/12/24 12:01:07;;;;;;;12.18;5.47;;;;;;;-6.98;100.00;99046.63;5030613;28;20118;-54
2021/12/24 12:03:58;;;;;;;13.43;5.72;;;;;;;-6.92;100.00;99051.16;5020333;28;20048;-57
2021/12/24 12:06:43;;;;;;;14.52;5.78;;;;;;;-7.09;100.00;99052.19;5053057;28;20087;-56
2021/12/24 12:09:43;;;;;;;12.73;6.18;;;;;;;-6.83;100.00;99048.88;5036689;28;20094;-58
2021/12/24 12:12:36;;;;;;;11.73;5.53;;;;;;;-6.75;100.00;99056.09;5049952;28;20137;-59
2021/12/24 12:15:31;;;;;;;13.38;6.00;;;;;;;-6.87;100.00;99054.75;5049381;28;20468;-54
2021/12/24 12:18:33;;;;;;;16.27;6.55;;;;;;;-6.69;100.00;99065.72;5022242;28;20590;-60
2021/12/24 12:21:34;;;;;;;15.68;6.55;;;;;;;-6.67;100.00;99051.19;5050079;28;20463;-63
2021/12/24 12:27:26;;;;;;;13.00;6.60;;;;;;;-6.50;100.00;99058.69;5050414;28;20051;-57
2021/12/24 12:30:19;;;;;;;15.68;6.68;;;;;;;-6.58;100.00;99052.38;5033636;28;20052;-61
2021/12/24 12:33:14;;;;;;;15.00;6.18;;;;;;;-6.61;100.00;99049.69;5035453;28;20416;-57
2021/12/24 12:36:02;;;;;;;20.13;7.85;;;;;;;-6.37;100.00;99044.53;5037826;28;20099;-51
2021/12/24 12:38:47;;;;;;;16.73;8.35;;;;;;;-6.11;100.00;99056.56;5063615;28;20133;-55
2021/12/24 12:41:35;;;;;;;29.15;9.27;;;;;;;-6.13;100.00;99051.38;5050169;28;20417;-69
2021/12/24 12:44:20;;;;;;;22.40;11.20;;;;;;;-6.14;100.00;99072.84;5021539;28;20056;-61
2021/12/24 12:47:10;;;;;;;15.15;7.93;;;;;;;-6.28;100.00;99061.19;5046019;28;20076;-64
2021/12/24 12:50:18;;;;;;;13.77;7.05;;;;;;;-6.32;100.00;99051.59;5039017;28;20047;-60
2021/12/24 12:53:22;;;;;;;15.25;6.78;;;;;;;-6.47;100.00;99055.34;5041736;28;20168;-61
2021/12/24 12:56:30;;;;;;;15.55;6.28;;;;;;;-6.51;100.00;99049.22;5040369;28;20087;-59
2021/12/24 12:59:20;;;;;;;12.95;6.30;;;;;;;-6.69;100.00;99056.28;5035295;28;20052;-61
2021/12/24 13:02:05;;;;;;;13.13;6.20;;;;;;;-6.89;100.00;99056.41;5033431;28;20142;-59
2021/12/24 13:05:12;;;;;;;13.77;6.53;;;;;;;-6.89;100.00;99059.00;5048799;28;20052;-59
2021/12/24 13:08:09;;;;;;;17.15;7.28;;;;;;;-6.88;100.00;99059.00;5035782;28;20063;-60
2021/12/24 13:11:03;;;;;;;19.63;7.32;;;;;;;-6.84;100.00;99050.56;5050490;28;20055;-60
2021/12/24 13:13:54;;;;;;;13.63;6.37;;;;;;;-6.76;100.00;99054.31;5035562;28;20588;-61
2021/12/24 13:17:05;;;;;;;15.60;6.68;;;;;;;-6.64;100.00;99056.47;5048181;28;20299;-60
2021/12/24 13:22:37;;;;;;;;;;;;;;;-6.93;100.00;99024.50;5063765;28;20091;-66
2021/12/24 13:25:22;;;;;;;20.30;9.10;;;;;;;-6.79;100.00;99020.72;5035511;28;19978;-59
2021/12/24 13:28:07;;;;;;;21.58;9.18;;;;;;;-6.62;100.00;99021.28;5050208;28;20425;-59
2021/12/24 13:30:52;;;;;;;15.15;7.35;;;;;;;-6.64;100.00;99007.50;5052666;28;20468;-66
2021/12/24 13:33:39;;;;;;;15.80;6.25;;;;;;;-6.97;100.00;99026.94;5043488;28;20155;-65
2021/12/24 13:36:29;;;;;;;17.50;7.55;;;;;;;-7.08;100.00;99025.66;5062488;28;20366;-63
2021/12/24 13:39:22;;;;;;;19.90;6.80;;;;;;;-7.30;100.00;99021.41;5065727;28;20132;-64
2021/12/24 13:42:07;;;;;;;12.10;5.57;;;;;;;-7.26;100.00;99033.56;5037629;28;20063;-66
2021/12/24 13:45:03;;;;;;;15.40;7.80;;;;;;;-7.34;100.00;98992.91;5067265;28;20068;-64
2021/12/24 13:48:06;;;;;;;16.63;7.32;;;;;;;-7.29;100.00;99025.72;5029738;28;20099;-57
2021/12/24 13:56:50;;;;;;;19.65;8.05;;;;;;;-7.30;100.00;99030.81;5038827;28;20063;-64
2021/12/24 13:59:35;;;;;;;16.73;7.32;;;;;;;-7.24;100.00;99029.34;5033262;28;20064;-65
2021/12/24 14:02:20;;;;;;;14.32;6.30;;;;;;;-7.41;100.00;99029.53;5036583;28;20052;-62
2021/12/24 14:05:05;;;;;;;16.60;7.32;;;;;;;-7.41;100.00;99020.13;5050857;28;20134;-63
2021/12/24 14:08:22;;;;;;;17.88;7.53;;;;;;;-7.17;100.00;99025.28;5036953;28;20048;-56
2021/12/24 14:11:11;;;;;;;16.73;7.53;;;;;;;-7.23;100.00;99007.94;5044153;28;20126;-60
2021/12/24 14:14:04;;;;;;;16.92;7.15;;;;;;;-7.00;100.00;99016.50;5051283;28;20539;-66
2021/12/24 14:20:04;;;;;;;19.40;7.60;;;;;;;-7.28;100.00;99000.88;5051136;28;20098;-64
2021/12/24 14:22:49;;;;;;;19.80;8.07;;;;;;;-7.39;100.00;99004.75;5041667;28;20099;-59
2021/12/24 14:25:35;;;;;;;20.90;7.72;;;;;;;-7.24;100.00;99000.16;5021933;28;20044;-57
2021/12/24 14:28:22;;;;;;;19.63;7.40;;;;;;;-7.31;100.00;98995.59;5047626;28;20051;-68
2021/12/24 14:31:07;;;;;;;16.23;7.30;;;;;;;-7.08;100.00;98984.44;5048564;28;20159;-63
2021/12/24 14:33:54;;;;;;;;;;;;;;;-7.05;100.00;98975.13;5053789;28;20075;-58
2021/12/24 14:36:57;;;;;;;15.23;7.53;;;;;;;-6.94;100.00;98978.06;5029315;28;19923;-60
2021/12/24 14:40:05;;;;;;;16.85;7.22;;;;;;;-7.15;100.00;98974.75;5037082;28;20114;-59
2021/12/24 14:42:52;;;;;;;15.35;7.32;;;;;;;-7.29;100.00;98968.19;5028293;28;20536;-59
2021/12/24 14:45:41;;;;;;;18.48;7.32;;;;;;;-7.37;100.00;98982.50;5038639;28;20792;-62